Time;durP1;ratioP1;P1;durP2;ratioP2;P2;SDS_P1;SDS_P2;PMS_P1;PMS_P2;Temp;Humidity;BMP_temperature;BMP_pressure;BME280_temperature;BME280_humidity;BME280_pressure;Samples;Min_cycle;Max_cycle;Signal;HPM_P1;HPM_P2
2020/12/17 00:00:24;;;;;;;35.30;19.83;;;6.30;99.90;;;;;;5028256;28;20052;-46
2020/12/17 00:02:50;;;;;;;40.78;22.58;;;6.30;99.90;;;;;;5029575;28;20033;-46
2020/12/17 00:05:16;;;;;;;39.30;21.60;;;6.30;99.90;;;;;;5028523;28;20029;-46
2020/12/17 00:07:42;;;;;;;36.28;19.73;;;6.30;99.90;;;;;;5029061;28;20041;-47
2020/12/17 00:10:10;;;;;;;40.13;21.70;;;6.30;99.90;;;;;;5029042;28;20069;-46
2020/12/17 00:12:40;;;;;;;39.13;22.10;;;6.30;99.90;;;;;;5029196;28;20033;-47
2020/12/17 00:15:11;;;;;;;40.40;20.67;;;6.30;99.90;;;;;;5028942;28;20049;-46
2020/12/17 00:17:45;;;;;;;38.60;22.25;;;6.30;99.90;;;;;;5029435;28;20064;-47
2020/12/17 00:20:12;;;;;;;39.58;21.98;;;6.30;99.90;;;;;;5029428;28;20483;-46
2020/12/17 00:22:41;;;;;;;45.38;24.13;;;6.30;99.90;;;;;;5030148;28;20453;-49
2020/12/17 00:25:09;;;;;;;43.00;21.55;;;6.30;99.90;;;;;;5027953;28;20044;-47
2020/12/17 00:27:39;;;;;;;37.72;21.90;;;6.30;99.90;;;;;;5027595;28;20053;-47
2020/12/17 00:30:13;;;;;;;37.80;20.45;;;6.30;99.90;;;;;;5029150;28;20029;-47
2020/12/17 00:32:40;;;;;;;38.53;19.67;;;6.20;99.90;;;;;;5028964;28;20113;-46
2020/12/17 00:35:07;;;;;;;34.88;19.35;;;6.20;99.90;;;;;;5028317;28;20033;-46
2020/12/17 00:37:33;;;;;;;37.60;19.60;;;6.20;99.90;;;;;;5029097;28;20037;-46
2020/12/17 00:40:00;;;;;;;32.20;19.15;;;6.20;99.90;;;;;;5028394;28;20471;-47
2020/12/17 00:42:25;;;;;;;29.65;17.35;;;6.10;99.90;;;;;;5028653;28;20513;-46
2020/12/17 00:44:51;;;;;;;30.73;17.58;;;6.10;99.90;;;;;;5028223;28;20033;-47
2020/12/17 00:47:18;;;;;;;28.88;17.67;;;6.10;99.90;;;;;;5028545;28;20100;-47
2020/12/17 00:49:44;;;;;;;37.75;20.60;;;6.00;99.90;;;;;;5028556;28;20029;-47
2020/12/17 00:52:09;;;;;;;37.42;20.52;;;6.00;99.90;;;;;;5027460;28;20128;-47
2020/12/17 00:54:38;;;;;;;36.88;21.08;;;6.00;99.90;;;;;;5027337;28;20116;-47
2020/12/17 00:57:04;;;;;;;41.75;21.08;;;6.00;99.90;;;;;;5028897;28;20029;-47
2020/12/17 00:59:29;;;;;;;35.95;19.98;;;6.00;99.90;;;;;;5028567;28;20537;-47
2020/12/17 01:01:55;;;;;;;38.50;21.27;;;6.00;99.90;;;;;;5028593;28;20569;-47
2020/12/17 01:04:20;;;;;;;37.72;20.90;;;6.10;99.90;;;;;;5028253;28;20034;-47
2020/12/17 01:06:46;;;;;;;44.80;21.55;;;6.10;99.90;;;;;;5027724;28;20493;-47
2020/12/17 01:09:11;;;;;;;38.33;21.63;;;6.10;99.90;;;;;;5026800;28;20038;-47
2020/12/17 01:11:37;;;;;;;37.47;21.17;;;6.10;99.90;;;;;;5027998;28;21531;-46
2020/12/17 01:14:03;;;;;;;37.75;21.83;;;6.10;99.90;;;;;;5028707;28;20108;-47
2020/12/17 01:16:29;;;;;;;42.53;22.38;;;6.10;99.90;;;;;;5027757;28;20026;-47
2020/12/17 01:18:55;;;;;;;39.55;21.33;;;6.10;99.90;;;;;;5029020;28;20056;-46
2020/12/17 01:21:20;;;;;;;39.42;21.60;;;6.10;99.90;;;;;;5028360;28;20430;-48
2020/12/17 01:23:47;;;;;;;33.95;19.13;;;6.10;99.90;;;;;;5029293;28;20159;-46
2020/12/17 01:26:12;;;;;;;41.50;21.90;;;6.20;99.90;;;;;;5027017;28;20124;-46
2020/12/17 01:28:40;;;;;;;36.17;20.48;;;6.20;99.90;;;;;;5028020;28;20574;-47
2020/12/17 01:31:13;;;;;;;37.22;19.92;;;6.20;99.90;;;;;;5027795;28;20034;-47
2020/12/17 01:33:40;;;;;;;37.40;19.48;;;6.20;99.90;;;;;;5028049;28;20107;-47
2020/12/17 01:36:10;;;;;;;36.80;21.08;;;6.10;99.90;;;;;;5027803;28;20026;-47
2020/12/17 01:38:37;;;;;;;35.75;20.27;;;6.10;99.90;;;;;;5027160;28;20071;-46
2020/12/17 01:41:04;;;;;;;38.90;20.38;;;6.20;99.90;;;;;;5027607;28;20022;-46
2020/12/17 01:43:43;;;;;;;33.22;19.83;;;6.20;99.90;;;;;;5027524;28;20021;-46
2020/12/17 01:46:10;;;;;;;37.75;19.75;;;6.20;99.90;;;;;;5026978;28;20049;-46
2020/12/17 01:48:36;;;;;;;31.70;18.13;;;6.20;99.90;;;;;;5027331;28;20510;-46
2020/12/17 01:51:03;;;;;;;33.35;19.02;;;6.20;99.90;;;;;;5027477;28;20108;-46
2020/12/17 01:53:28;;;;;;;32.67;18.33;;;6.10;99.90;;;;;;5027716;28;20029;-46
2020/12/17 01:56:00;;;;;;;32.50;19.13;;;6.10;99.90;;;;;;5027053;28;20094;-47
2020/12/17 01:58:27;;;;;;;33.78;19.00;;;6.10;99.90;;;;;;5027302;28;20026;-50
2020/12/17 02:00:54;;;;;;;32.55;18.25;;;6.10;99.90;;;;;;5027691;28;20026;-49
2020/12/17 02:03:21;;;;;;;35.00;18.73;;;6.10;99.90;;;;;;5027445;28;20156;-47
2020/12/17 02:05:50;;;;;;;34.33;18.73;;;6.10;99.90;;;;;;5026835;28;20017;-49
2020/12/17 02:08:19;;;;;;;36.63;20.00;;;6.00;99.90;;;;;;5026124;28;20041;-47
2020/12/17 02:10:45;;;;;;;34.95;18.75;;;6.00;99.90;;;;;;5026552;28;20033;-47
2020/12/17 02:13:11;;;;;;;36.22;19.77;;;6.10;99.90;;;;;;5025795;28;20041;-47
2020/12/17 02:15:36;;;;;;;36.90;21.27;;;6.10;99.90;;;;;;5026872;28;20025;-48
2020/12/17 02:18:02;;;;;;;32.38;17.85;;;6.10;99.90;;;;;;5027236;28;20052;-47
2020/12/17 02:20:27;;;;;;;32.00;18.35;;;6.20;99.90;;;;;;5025745;28;20029;-47
2020/12/17 02:22:53;;;;;;;36.03;19.38;;;6.20;99.90;;;;;;5026828;28;20037;-47
2020/12/17 02:25:18;;;;;;;34.85;18.05;;;6.30;99.90;;;;;;5026994;28;20044;-47
2020/12/17 02:27:45;;;;;;;29.92;17.60;;;6.30;99.90;;;;;;5027004;28;20037;-47
2020/12/17 02:30:12;;;;;;;27.05;16.85;;;6.30;99.90;;;;;;5026590;28;20469;-48
2020/12/17 02:32:38;;;;;;;28.40;16.70;;;6.40;99.90;;;;;;5026712;28;20037;-47
2020/12/17 02:35:05;;;;;;;26.30;16.13;;;6.50;99.90;;;;;;5026442;28;20573;-47
2020/12/17 02:37:32;;;;;;;27.52;16.77;;;6.60;99.90;;;;;;5026845;28;20475;-48
2020/12/17 02:39:58;;;;;;;26.15;15.43;;;6.70;99.90;;;;;;5026536;28;20437;-48
2020/12/17 02:42:23;;;;;;;26.27;15.48;;;6.70;99.90;;;;;;5026784;28;20091;-47
2020/12/17 02:44:49;;;;;;;26.50;14.93;;;6.80;99.90;;;;;;5026370;28;20113;-48
2020/12/17 02:47:14;;;;;;;28.90;16.00;;;6.90;99.90;;;;;;5026629;28;20548;-46
2020/12/17 02:49:39;;;;;;;29.02;15.32;;;7.00;99.90;;;;;;5026094;28;20033;-47
2020/12/17 02:52:05;;;;;;;25.83;13.48;;;7.10;99.90;;;;;;5026644;28;20022;-47
2020/12/17 02:54:31;;;;;;;22.40;14.48;;;7.10;99.90;;;;;;5025734;28;20055;-46
2020/12/17 02:56:56;;;;;;;23.48;14.27;;;7.20;99.90;;;;;;5026685;28;20021;-48
2020/12/17 02:59:22;;;;;;;24.35;14.43;;;7.20;99.90;;;;;;5026747;28;20037;-47
2020/12/17 03:01:47;;;;;;;20.55;12.23;;;7.20;99.90;;;;;;5026925;28;20044;-46
2020/12/17 03:04:13;;;;;;;23.83;14.32;;;7.30;99.90;;;;;;5026665;28;20038;-47
2020/12/17 03:06:38;;;;;;;23.80;14.05;;;7.30;99.90;;;;;;5025770;28;20337;-46
2020/12/17 03:09:05;;;;;;;24.63;13.52;;;7.30;99.90;;;;;;5026601;28;20029;-47
2020/12/17 03:11:31;;;;;;;23.55;14.40;;;7.30;99.90;;;;;;5024739;28;20021;-46
2020/12/17 03:13:57;;;;;;;22.73;13.60;;;7.40;99.90;;;;;;5026414;28;20029;-46
2020/12/17 03:16:23;;;;;;;25.38;14.45;;;7.50;99.90;;;;;;5025956;28;20045;-46
2020/12/17 03:18:48;;;;;;;22.63;13.75;;;7.50;99.90;;;;;;5026820;28;20022;-46
2020/12/17 03:21:14;;;;;;;23.83;14.23;;;7.50;99.90;;;;;;5026698;28;20029;-47
2020/12/17 03:23:39;;;;;;;24.13;13.35;;;7.60;99.90;;;;;;5026150;28;20041;-46
2020/12/17 03:26:05;;;;;;;23.20;13.27;;;7.60;99.90;;;;;;5035092;28;20028;-46
2020/12/17 03:28:31;;;;;;;22.27;13.70;;;7.70;99.90;;;;;;5025766;28;20486;-47
2020/12/17 03:30:56;;;;;;;18.42;12.10;;;7.70;99.90;;;;;;5024569;28;20034;-48
2020/12/17 03:33:21;;;;;;;21.55;12.75;;;7.70;99.90;;;;;;5026289;28;20029;-47
2020/12/17 03:35:47;;;;;;;20.63;12.93;;;7.80;99.90;;;;;;5025985;28;20021;-47
2020/12/17 03:38:13;;;;;;;21.00;12.55;;;7.80;99.90;;;;;;5026028;28;20049;-47
2020/12/17 03:40:38;;;;;;;19.25;12.05;;;7.90;99.90;;;;;;5025969;28;20284;-47
2020/12/17 03:43:04;;;;;;;19.33;11.68;;;7.90;99.90;;;;;;5024904;28;20490;-48
2020/12/17 03:45:29;;;;;;;18.13;11.57;;;7.90;99.90;;;;;;5024770;28;20029;-47
2020/12/17 03:47:55;;;;;;;18.17;11.10;;;8.00;99.90;;;;;;5025739;28;20037;-47
2020/12/17 03:50:20;;;;;;;23.40;13.63;;;8.00;99.90;;;;;;5025810;28;20114;-47
2020/12/17 03:52:46;;;;;;;20.67;12.57;;;8.00;99.90;;;;;;5026342;28;20075;-48
2020/12/17 03:55:11;;;;;;;21.05;12.07;;;8.00;99.90;;;;;;5025343;28;20537;-47
2020/12/17 03:57:37;;;;;;;20.90;12.85;;;8.00;99.90;;;;;;5026191;28;20193;-47
2020/12/17 04:00:04;;;;;;;24.08;13.15;;;8.10;99.90;;;;;;5026215;28;20029;-49
2020/12/17 04:02:29;;;;;;;16.85;11.18;;;8.10;99.90;;;;;;5028505;28;20398;-47
2020/12/17 04:04:55;;;;;;;21.55;12.52;;;8.10;99.90;;;;;;5028762;28;20029;-47
2020/12/17 04:07:20;;;;;;;22.63;12.52;;;8.10;99.90;;;;;;5029258;28;21004;-48
2020/12/17 04:09:46;;;;;;;18.98;12.40;;;8.10;99.90;;;;;;5029570;28;20088;-47
2020/12/17 04:12:11;;;;;;;21.80;12.75;;;8.00;99.90;;;;;;5028907;28;20304;-47
2020/12/17 04:14:39;;;;;;;21.65;13.45;;;8.00;99.90;;;;;;5028829;28;20032;-47
2020/12/17 04:17:04;;;;;;;22.85;12.85;;;8.00;99.90;;;;;;5029693;28;20030;-47
2020/12/17 04:19:29;;;;;;;19.88;12.55;;;8.00;99.90;;;;;;5029755;28;20071;-46
2020/12/17 04:21:55;;;;;;;24.27;13.95;;;8.00;99.90;;;;;;5029512;28;20080;-47
2020/12/17 04:24:23;;;;;;;21.02;13.35;;;8.00;99.90;;;;;;5029405;28;20368;-47
2020/12/17 04:26:50;;;;;;;20.95;12.93;;;8.00;99.90;;;;;;5033371;28;20045;-50
2020/12/17 04:29:15;;;;;;;22.92;13.73;;;7.90;99.90;;;;;;5031107;28;20029;-48
2020/12/17 04:31:41;;;;;;;22.02;13.40;;;7.90;99.90;;;;;;5029540;28;20410;-47
2020/12/17 04:34:06;;;;;;;22.30;13.25;;;8.00;99.90;;;;;;5028944;28;20034;-49
2020/12/17 04:36:32;;;;;;;19.60;11.73;;;8.00;99.90;;;;;;5028286;28;20044;-49
2020/12/17 04:38:58;;;;;;;20.10;12.30;;;8.00;99.90;;;;;;5029227;28;20372;-46
2020/12/17 04:41:25;;;;;;;19.98;12.50;;;8.00;99.90;;;;;;5027387;28;20033;-46
2020/12/17 04:43:51;;;;;;;21.08;12.30;;;8.00;99.90;;;;;;5027661;28;20043;-47
2020/12/17 04:46:19;;;;;;;19.83;12.07;;;8.00;99.90;;;;;;5027984;28;20483;-47
2020/12/17 04:48:47;;;;;;;22.75;12.63;;;8.00;99.90;;;;;;5028891;28;20506;-46
2020/12/17 04:51:13;;;;;;;20.42;12.23;;;8.00;99.90;;;;;;5028211;28;20189;-46
2020/12/17 04:53:44;;;;;;;19.75;11.65;;;8.00;99.90;;;;;;5027406;28;20021;-46
2020/12/17 04:56:14;;;;;;;20.80;11.98;;;8.00;99.90;;;;;;5028136;28;20387;-48
2020/12/17 04:58:47;;;;;;;15.77;10.87;;;8.10;99.90;;;;;;5027006;28;20088;-46
2020/12/17 05:01:17;;;;;;;18.08;11.82;;;8.10;99.90;;;;;;5028491;28;20511;-46
2020/12/17 05:03:46;;;;;;;17.30;11.43;;;8.10;99.90;;;;;;5028567;28;20053;-46
2020/12/17 05:06:19;;;;;;;18.58;11.75;;;8.20;99.90;;;;;;5028070;28;20031;-47
2020/12/17 05:08:45;;;;;;;17.23;10.93;;;8.30;99.90;;;;;;5028490;28;20025;-46
2020/12/17 05:11:10;;;;;;;15.70;10.57;;;8.30;99.90;;;;;;5027468;28;20029;-46
2020/12/17 05:13:36;;;;;;;17.95;10.75;;;8.40;99.90;;;;;;5028260;28;20033;-47
2020/12/17 05:16:01;;;;;;;16.27;10.65;;;8.40;99.90;;;;;;5027716;28;20030;-49
2020/12/17 05:18:27;;;;;;;18.60;10.57;;;8.30;99.90;;;;;;5028151;28;20429;-47
2020/12/17 05:20:54;;;;;;;17.83;9.80;;;8.40;99.90;;;;;;5028604;28;20029;-46
2020/12/17 05:23:22;;;;;;;16.48;11.30;;;8.40;99.90;;;;;;5028276;28;20033;-45
2020/12/17 05:25:51;;;;;;;19.67;10.93;;;8.40;99.90;;;;;;5026974;28;20099;-47
2020/12/17 05:28:16;;;;;;;18.25;11.02;;;8.40;99.90;;;;;;5032888;28;20025;-49
2020/12/17 05:30:42;;;;;;;17.27;10.57;;;8.40;99.90;;;;;;5026640;28;20034;-47
2020/12/17 05:33:07;;;;;;;15.50;10.05;;;8.40;99.90;;;;;;5027724;28;20061;-49
2020/12/17 05:35:38;;;;;;;18.60;10.82;;;8.40;99.90;;;;;;5026898;28;20036;-46
2020/12/17 05:38:06;;;;;;;15.68;11.43;;;8.40;99.90;;;;;;5027927;28;20040;-46
2020/12/17 05:40:51;;;;;;;20.40;11.65;;;8.30;99.90;;;;;;5026977;28;20288;-46
2020/12/17 05:43:24;;;;;;;17.65;11.00;;;8.30;99.90;;;;;;5027228;28;20040;-46
2020/12/17 05:45:49;;;;;;;18.73;10.60;;;8.30;99.90;;;;;;5027272;28;20108;-49
2020/12/17 05:48:15;;;;;;;20.75;11.52;;;8.30;99.90;;;;;;5026307;28;20188;-47
2020/12/17 05:50:52;;;;;;;19.13;10.93;;;8.30;99.90;;;;;;5026290;28;20508;-48
2020/12/17 05:53:18;;;;;;;18.10;11.30;;;8.30;99.90;;;;;;5027290;28;20079;-47
2020/12/17 05:55:44;;;;;;;17.63;10.82;;;8.30;99.90;;;;;;5034409;28;20025;-48
2020/12/17 05:58:12;;;;;;;14.68;9.55;;;8.30;99.90;;;;;;5036276;28;20021;-49
2020/12/17 06:00:38;;;;;;;15.05;10.40;;;8.30;99.90;;;;;;5032866;28;20091;-50
2020/12/17 06:03:08;;;;;;;17.65;10.52;;;8.20;99.90;;;;;;5027428;28;20025;-47
2020/12/17 06:05:34;;;;;;;17.88;10.07;;;8.30;99.90;;;;;;5026420;28;20021;-47
2020/12/17 06:08:00;;;;;;;17.23;10.35;;;8.20;99.90;;;;;;5027332;28;20517;-47
2020/12/17 06:10:30;;;;;;;17.20;9.98;;;8.20;99.90;;;;;;5026574;28;20022;-48
2020/12/17 06:13:00;;;;;;;15.57;9.88;;;8.20;99.90;;;;;;5025849;28;20036;-47
2020/12/17 06:15:27;;;;;;;15.93;10.35;;;8.20;99.90;;;;;;5026628;28;20029;-47
2020/12/17 06:17:55;;;;;;;16.65;10.35;;;8.20;99.90;;;;;;5027626;28;20037;-47
2020/12/17 06:20:25;;;;;;;15.55;9.77;;;8.10;99.90;;;;;;5027472;28;20028;-47
2020/12/17 06:22:55;;;;;;;14.40;8.88;;;8.10;99.90;;;;;;5027299;28;20120;-48
2020/12/17 06:25:22;;;;;;;16.30;10.05;;;8.10;99.90;;;;;;5025541;28;20033;-48
2020/12/17 06:27:49;;;;;;;15.13;9.35;;;8.00;99.90;;;;;;5027141;28;20034;-49
2020/12/17 06:30:20;;;;;;;12.88;9.07;;;8.00;99.90;;;;;;5033319;28;20048;-47
2020/12/17 06:32:47;;;;;;;13.63;9.23;;;8.00;99.90;;;;;;5041235;28;20029;-50
2020/12/17 06:35:20;;;;;;;14.70;9.82;;;8.00;99.90;;;;;;5026371;28;20029;-49
2020/12/17 06:37:46;;;;;;;12.98;9.30;;;8.00;99.90;;;;;;5026942;28;20076;-50
2020/12/17 06:40:12;;;;;;;14.23;9.35;;;8.00;99.90;;;;;;5026093;28;20126;-50
2020/12/17 06:42:39;;;;;;;14.20;8.85;;;8.00;99.90;;;;;;5025216;28;20044;-49
2020/12/17 06:45:32;;;;;;;15.60;9.68;;;7.90;99.90;;;;;;5026393;28;20021;-47
2020/12/17 06:47:58;;;;;;;16.35;9.25;;;7.90;99.90;;;;;;5027023;28;20025;-51
2020/12/17 06:50:24;;;;;;;13.70;9.27;;;7.90;99.90;;;;;;5026632;28;20029;-47
2020/12/17 06:53:10;;;;;;;14.90;10.10;;;7.90;99.90;;;;;;5026372;28;20037;-47
2020/12/17 06:55:48;;;;;;;15.85;9.98;;;7.90;99.90;;;;;;5027120;28;20483;-47
2020/12/17 06:58:24;;;;;;;15.13;9.60;;;7.90;99.90;;;;;;5032217;28;20686;-47
2020/12/17 07:00:55;;;;;;;15.98;9.70;;;8.00;99.90;;;;;;5027116;28;20032;-47
2020/12/17 07:03:46;;;;;;;14.05;8.23;;;8.00;99.90;;;;;;5026394;28;20018;-48
2020/12/17 07:06:20;;;;;;;15.65;9.85;;;8.10;99.90;;;;;;5026049;28;20499;-48
2020/12/17 07:08:50;;;;;;;12.20;8.27;;;8.20;99.90;;;;;;5026640;28;20116;-47
2020/12/17 07:11:37;;;;;;;12.80;8.00;;;8.30;99.90;;;;;;5026429;28;20333;-47
2020/12/17 07:14:04;;;;;;;18.88;9.10;;;8.50;99.90;;;;;;5029120;28;20461;-47
2020/12/17 07:16:31;;;;;;;13.52;8.25;;;8.60;99.90;;;;;;5035164;28;20017;-48
2020/12/17 07:19:15;;;;;;;10.27;7.50;;;8.60;99.90;;;;;;5035817;28;20027;-47
2020/12/17 07:21:41;;;;;;;10.45;7.35;;;8.80;99.90;;;;;;5034285;28;20029;-47
2020/12/17 07:24:06;;;;;;;18.83;8.90;;;8.80;99.90;;;;;;5034748;28;20030;-47
2020/12/17 07:26:34;;;;;;;12.32;7.03;;;8.90;99.90;;;;;;5034730;28;20025;-46
2020/12/17 07:28:59;;;;;;;12.30;7.65;;;9.00;99.90;;;;;;5036802;28;20089;-47
2020/12/17 07:31:26;;;;;;;13.68;7.78;;;9.10;99.90;;;;;;5032221;28;20033;-48
2020/12/17 07:33:52;;;;;;;9.85;6.93;;;9.10;99.90;;;;;;5034613;28;20096;-47
2020/12/17 07:36:17;;;;;;;11.48;7.93;;;9.10;99.90;;;;;;5034967;28;20017;-47
2020/12/17 07:38:44;;;;;;;11.23;7.07;;;9.20;99.90;;;;;;5039763;28;20476;-47
2020/12/17 07:41:26;;;;;;;10.40;7.00;;;9.30;99.90;;;;;;5037833;28;20032;-49
2020/12/17 07:43:53;;;;;;;10.05;6.80;;;9.40;99.90;;;;;;5038546;28;20021;-48
2020/12/17 07:46:35;;;;;;;10.95;6.70;;;9.40;99.90;;;;;;5037879;28;20042;-48
2020/12/17 07:49:18;;;;;;;9.52;6.65;;;9.40;99.90;;;;;;5038390;28;20025;-48
2020/12/17 07:51:43;;;;;;;11.40;6.72;;;9.40;99.90;;;;;;5037106;28;20017;-48
2020/12/17 07:54:09;;;;;;;11.73;6.78;;;9.30;99.90;;;;;;5037996;28;20068;-49
2020/12/17 07:56:34;;;;;;;9.73;6.75;;;9.30;99.90;;;;;;5034524;28;20026;-48
2020/12/17 07:59:04;;;;;;;13.13;7.35;;;9.30;99.90;;;;;;5037857;28;20017;-47
2020/12/17 08:01:30;;;;;;;11.85;6.32;;;9.30;99.90;;;;;;5038482;28;20383;-48
2020/12/17 08:03:55;;;;;;;8.50;6.53;;;9.30;99.90;;;;;;5037302;28;20071;-48
2020/12/17 08:06:24;;;;;;;9.05;6.15;;;9.20;99.90;;;;;;5038783;28;20533;-50
2020/12/17 08:08:56;;;;;;;9.95;6.32;;;9.20;99.90;;;;;;5037711;28;20553;-47
2020/12/17 08:11:25;;;;;;;10.18;6.88;;;9.20;99.90;;;;;;5036411;28;20260;-50
2020/12/17 08:14:06;;;;;;;11.10;7.10;;;9.20;99.90;;;;;;5036947;28;20014;-49
2020/12/17 08:16:32;;;;;;;;;;;9.20;99.90;;;;;;5034616;28;20108;-48
2020/12/17 08:18:59;;;;;;;14.60;7.55;;;9.20;99.90;;;;;;5029764;28;19921;-47
2020/12/17 08:21:25;;;;;;;11.48;7.57;;;9.20;99.90;;;;;;5028009;28;20036;-47
2020/12/17 08:23:51;;;;;;;10.68;6.70;;;9.30;99.90;;;;;;5029898;28;20109;-48
2020/12/17 08:26:20;;;;;;;11.48;7.95;;;9.30;99.90;;;;;;5029096;28;20439;-48
2020/12/17 08:28:47;;;;;;;11.73;7.20;;;9.30;99.90;;;;;;5030478;28;20042;-49
2020/12/17 08:31:14;;;;;;;10.75;6.88;;;9.40;99.90;;;;;;5037936;28;20030;-48
2020/12/17 08:33:42;;;;;;;11.25;7.43;;;9.40;99.90;;;;;;5031526;28;20470;-47
2020/12/17 08:36:09;;;;;;;12.48;7.30;;;9.50;99.90;;;;;;5037332;28;20043;-48
2020/12/17 08:38:36;;;;;;;11.23;6.43;;;9.50;99.90;;;;;;5037401;28;20030;-47
2020/12/17 08:41:04;;;;;;;10.35;6.70;;;9.60;99.90;;;;;;5038131;28;20433;-48
2020/12/17 08:43:36;;;;;;;10.15;6.45;;;9.60;99.90;;;;;;5037362;28;20021;-47
2020/12/17 08:46:02;;;;;;;14.65;7.13;;;9.70;99.90;;;;;;5034658;28;20022;-47
2020/12/17 08:48:31;;;;;;;10.07;6.75;;;9.70;99.90;;;;;;5028222;28;20403;-49
2020/12/17 08:50:57;;;;;;;12.32;7.20;;;9.70;99.90;;;;;;5028839;28;20021;-51
2020/12/17 08:53:27;;;;;;;11.00;7.28;;;9.80;99.90;;;;;;5028627;28;20231;-43
2020/12/17 08:56:18;;;;;;;10.05;7.10;;;9.80;99.90;;;;;;5032588;28;20116;-42
2020/12/17 08:58:43;;;;;;;;;;;9.80;99.90;;;;;;5048638;28;20021;-45
2020/12/17 09:01:14;;;;;;;11.43;6.57;;;9.80;99.90;;;;;;5048626;28;20012;-43
2020/12/17 09:03:43;;;;;;;;;;;9.80;99.90;;;;;;5049187;28;20024;-42
2020/12/17 09:06:08;;;;;;;12.13;6.50;;;9.80;99.90;;;;;;5047765;28;20366;-45
2020/12/17 09:08:34;;;;;;;10.15;6.90;;;9.70;99.90;;;;;;5048170;28;20039;-43
2020/12/17 09:11:00;;;;;;;11.23;6.28;;;9.80;99.90;;;;;;5048173;28;20025;-42
2020/12/17 09:13:26;;;;;;;9.00;6.22;;;9.80;99.90;;;;;;5047929;28;20471;-44
2020/12/17 09:16:02;;;;;;;10.07;5.85;;;9.90;99.90;;;;;;5047686;28;20051;-42
2020/12/17 09:18:28;;;;;;;10.68;6.43;;;10.00;99.90;;;;;;5048361;28;20384;-48
2020/12/17 09:21:11;;;;;;;9.23;6.30;;;10.00;99.90;;;;;;5048041;28;20021;-48
2020/12/17 09:23:38;;;;;;;8.70;5.95;;;10.00;99.90;;;;;;5029212;28;20026;-48
2020/12/17 09:26:14;;;;;;;9.88;6.95;;;10.00;99.90;;;;;;5034153;28;20548;-50
2020/12/17 09:28:50;;;;;;;9.35;6.28;;;10.00;99.90;;;;;;5028208;28;20056;-49
2020/12/17 09:31:23;;;;;;;11.85;6.15;;;10.10;99.90;;;;;;5026631;28;20021;-47
2020/12/17 09:33:49;;;;;;;9.70;6.32;;;10.10;99.90;;;;;;5027435;28;20021;-47
2020/12/17 09:36:16;;;;;;;11.00;6.78;;;10.10;99.90;;;;;;5028805;28;20509;-47
2020/12/17 09:38:42;;;;;;;10.82;7.13;;;10.10;99.90;;;;;;5032201;28;20124;-50
2020/12/17 09:41:08;;;;;;;9.55;6.57;;;10.10;99.90;;;;;;5027883;28;20453;-49
2020/12/17 09:43:33;;;;;;;8.45;6.43;;;10.20;99.90;;;;;;5027792;28;20104;-51
2020/12/17 09:45:59;;;;;;;8.85;6.25;;;10.20;99.90;;;;;;5027339;28;20102;-48
2020/12/17 09:48:30;;;;;;;9.63;5.55;;;10.20;99.90;;;;;;5026419;28;20340;-49
2020/12/17 09:50:57;;;;;;;9.45;6.38;;;10.30;99.90;;;;;;5025925;28;20059;-47
2020/12/17 09:53:23;;;;;;;11.70;7.03;;;10.30;99.90;;;;;;5025693;28;20021;-49
2020/12/17 09:55:50;;;;;;;9.25;6.53;;;10.30;99.90;;;;;;5023952;28;20017;-48
2020/12/17 09:58:16;;;;;;;10.60;7.00;;;10.30;99.90;;;;;;5026362;28;20033;-51
2020/12/17 10:00:41;;;;;;;15.18;8.18;;;10.30;99.90;;;;;;5026662;28;20024;-48
2020/12/17 10:03:07;;;;;;;11.90;7.78;;;10.40;99.90;;;;;;5027386;28;20055;-49
2020/12/17 10:05:32;;;;;;;12.77;7.82;;;10.30;99.90;;;;;;5025943;28;20550;-48
2020/12/17 10:07:58;;;;;;;11.65;7.43;;;10.40;99.90;;;;;;5027177;28;20394;-47
2020/12/17 10:10:23;;;;;;;10.50;7.30;;;10.40;99.90;;;;;;5022675;28;20032;-49
2020/12/17 10:12:49;;;;;;;15.00;8.05;;;10.40;99.90;;;;;;5027096;28;20029;-50
2020/12/17 10:15:15;;;;;;;10.90;7.38;;;10.40;99.90;;;;;;5029008;28;20600;-48
2020/12/17 10:17:40;;;;;;;14.10;6.78;;;10.50;99.90;;;;;;5026679;28;20022;-50
2020/12/17 10:20:09;;;;;;;13.73;7.95;;;10.50;99.90;;;;;;5026831;28;20463;-47
2020/12/17 10:22:35;;;;;;;12.07;8.52;;;10.40;99.90;;;;;;5027008;28;20060;-48
2020/12/17 10:25:00;;;;;;;12.18;7.50;;;10.40;99.90;;;;;;5025979;28;20044;-48
2020/12/17 10:27:26;;;;;;;10.23;7.43;;;10.40;99.90;;;;;;5026200;28;20466;-50
2020/12/17 10:29:51;;;;;;;10.90;7.45;;;10.40;99.90;;;;;;5027081;28;20121;-51
2020/12/17 10:32:18;;;;;;;13.02;8.23;;;10.50;99.90;;;;;;5027222;28;20029;-48
2020/12/17 10:34:44;;;;;;;12.02;7.25;;;10.40;99.90;;;;;;5034246;28;20059;-49
2020/12/17 10:37:09;;;;;;;15.75;8.32;;;10.50;99.90;;;;;;5026887;28;20517;-51
2020/12/17 10:39:35;;;;;;;13.25;8.32;;;10.50;99.90;;;;;;5026473;28;20046;-49
2020/12/17 10:42:04;;;;;;;14.07;8.15;;;10.50;99.90;;;;;;5034119;28;20151;-48
2020/12/17 10:44:30;;;;;;;12.98;8.30;;;10.50;99.90;;;;;;5043879;28;20809;-48
2020/12/17 10:46:56;;;;;;;12.50;8.65;;;10.40;99.90;;;;;;5046585;28;20104;-51
2020/12/17 10:49:22;;;;;;;10.73;7.85;;;10.40;99.90;;;;;;5046068;28;20090;-50
2020/12/17 10:51:49;;;;;;;13.15;8.02;;;10.50;99.90;;;;;;5039078;28;20033;-48
2020/12/17 10:54:14;;;;;;;16.52;8.95;;;10.40;99.90;;;;;;5026035;28;20395;-47
2020/12/17 10:56:45;;;;;;;13.90;8.02;;;10.40;99.90;;;;;;5025049;28;20030;-48
2020/12/17 10:59:10;;;;;;;;;;;10.40;99.90;;;;;;5027189;28;20345;-47
2020/12/17 11:01:36;;;;;;;11.82;8.50;;;10.40;99.90;;;;;;5026178;28;19905;-47
2020/12/17 11:04:01;;;;;;;15.80;8.48;;;10.30;99.90;;;;;;5026168;28;20025;-48
2020/12/17 11:06:28;;;;;;;14.95;8.48;;;10.40;99.90;;;;;;5025583;28;20251;-48
2020/12/17 11:08:53;;;;;;;13.32;8.07;;;10.40;99.90;;;;;;5025426;28;20740;-48
2020/12/17 11:11:19;;;;;;;13.73;8.70;;;10.40;99.90;;;;;;5027712;28;20025;-48
2020/12/17 11:13:44;;;;;;;11.93;8.75;;;10.40;99.90;;;;;;5030429;28;20025;-49
2020/12/17 11:16:10;;;;;;;11.50;7.72;;;10.40;99.90;;;;;;5029994;28;20213;-51
2020/12/17 11:18:36;;;;;;;12.60;9.13;;;10.40;99.90;;;;;;5030098;28;20041;-49
2020/12/17 11:21:02;;;;;;;16.90;8.98;;;10.50;99.90;;;;;;5030090;28;20021;-49
2020/12/17 11:23:27;;;;;;;12.00;8.48;;;10.60;99.90;;;;;;5030187;28;20034;-48
2020/12/17 11:25:53;;;;;;;15.57;8.98;;;10.60;99.90;;;;;;5028160;28;20025;-43
2020/12/17 11:28:18;;;;;;;11.68;8.27;;;10.40;99.90;;;;;;5028300;28;20052;-42
2020/12/17 11:30:44;;;;;;;12.45;8.77;;;10.30;99.90;;;;;;5030032;28;20037;-44
2020/12/17 11:33:09;;;;;;;16.02;9.60;;;10.30;99.90;;;;;;5029768;28;20064;-44
2020/12/17 11:35:35;;;;;;;21.02;10.02;;;10.20;99.90;;;;;;5033047;28;20022;-44
2020/12/17 11:38:01;;;;;;;15.15;10.48;;;10.20;99.90;;;;;;5029238;28;20481;-44
2020/12/17 11:40:26;;;;;;;16.73;10.45;;;10.00;99.90;;;;;;5029589;28;20467;-43
2020/12/17 11:42:54;;;;;;;17.27;11.02;;;10.00;99.90;;;;;;5029758;28;20038;-43
2020/12/17 11:45:19;;;;;;;18.80;10.88;;;9.90;99.90;;;;;;5029474;28;20026;-43
2020/12/17 11:47:45;;;;;;;20.92;11.00;;;9.80;99.90;;;;;;5029327;28;20319;-43
2020/12/17 11:50:11;;;;;;;15.25;10.20;;;9.80;99.90;;;;;;5030041;28;20029;-43
2020/12/17 11:52:37;;;;;;;21.77;11.68;;;9.80;99.90;;;;;;5029415;28;20419;-44
2020/12/17 11:55:06;;;;;;;17.98;10.40;;;9.70;99.90;;;;;;5027151;28;20076;-44
2020/12/17 11:57:32;;;;;;;15.60;10.18;;;9.70;99.90;;;;;;5029149;28;20044;-48
2020/12/17 11:59:58;;;;;;;17.52;10.60;;;9.70;99.90;;;;;;5029356;28;20414;-47
2020/12/17 12:02:23;;;;;;;19.63;10.85;;;9.80;99.90;;;;;;5029330;28;20041;-48
2020/12/17 12:04:49;;;;;;;16.80;11.45;;;9.70;99.90;;;;;;5029080;28;20537;-47
2020/12/17 12:07:14;;;;;;;15.60;10.38;;;9.80;99.90;;;;;;5028871;28;20040;-48
2020/12/17 12:09:40;;;;;;;16.90;10.63;;;9.80;99.90;;;;;;5028779;28;20492;-50
2020/12/17 12:12:05;;;;;;;18.20;10.50;;;9.80;99.90;;;;;;5029357;28;20034;-49
2020/12/17 12:14:31;;;;;;;16.30;10.38;;;9.70;99.90;;;;;;5026945;28;20199;-48
2020/12/17 12:16:57;;;;;;;17.48;10.32;;;9.70;99.90;;;;;;5028968;28;20104;-48
2020/12/17 12:19:22;;;;;;;17.10;11.15;;;9.80;99.90;;;;;;5029338;28;20531;-47
2020/12/17 12:21:48;;;;;;;13.90;9.10;;;9.80;99.90;;;;;;5028808;28;20025;-48
2020/12/17 12:24:15;;;;;;;18.38;10.10;;;9.70;99.90;;;;;;5032371;28;20276;-48
2020/12/17 12:26:41;;;;;;;17.75;9.93;;;9.80;99.90;;;;;;5047748;28;20222;-50
2020/12/17 12:29:06;;;;;;;17.95;9.85;;;9.80;99.90;;;;;;5038510;28;20018;-49
2020/12/17 12:31:32;;;;;;;14.60;9.70;;;9.70;99.90;;;;;;5028270;28;20041;-48
2020/12/17 12:33:57;;;;;;;15.18;9.55;;;9.80;99.90;;;;;;5028675;28;20025;-49
2020/12/17 12:36:23;;;;;;;15.80;10.30;;;9.80;99.90;;;;;;5027126;28;20026;-49
2020/12/17 12:38:48;;;;;;;16.52;9.85;;;9.80;99.90;;;;;;5027496;28;20033;-49
2020/12/17 12:41:13;;;;;;;14.65;9.98;;;9.80;99.90;;;;;;5031586;28;20391;-48